ESDF/RNB METAR and TAF weather

Enter ICAO airport designator
Station Type Date Time Source
ESDF METAR 2019/04/24 21:50 UTC NOAA

ESDF 242150Z AUTO 10005KT 9999 OVC058/// 12/07 Q1013


Station Type Date Time Source
ESDF Decoded METAR 2019/04/24 21:50 UTC NOAA

Ronneby, Sweden (ESDF) 56-16N 015-17E 74M
Apr 24, 2019 - 05:50 PM EDT / 2019.04.24 2150 UTC
Wind: from the E (100 degrees) at 6 MPH (5 KT):0
Visibility: greater than 7 mile(s):0
Sky conditions: overcast
Temperature: 53 F (12 C)
Dew Point: 44 F (7 C)
Relative Humidity: 71%
Pressure (altimeter): 29.91 in. Hg (1013 hPa)
ob: ESDF 242150Z AUTO 10005KT 9999 OVC058/// 12/07 Q1013
cycle: 22

Station Type Date Time Source
ESDF TAF 2018/05/29 12:27 UTC NOAA

TAF TAF ESDF 291425Z 2912/2924 07008KT CAVOK
RMK MIL

Example: see airport list